sensor_id;sensor_type;location;lat;lon;timestamp;P1;durP1;ratioP1;P2;durP2;ratioP2
18280;SDS011;9266;51.132;17.062;2022-07-05T00:00:33;15.40;;;14.03;;
18280;SDS011;9266;51.132;17.062;2022-07-05T00:03:01;14.80;;;13.40;;
18280;SDS011;9266;51.132;17.062;2022-07-05T00:05:30;13.40;;;12.30;;
18280;SDS011;9266;51.132;17.062;2022-07-05T00:07:57;12.63;;;11.63;;
18280;SDS011;9266;51.132;17.062;2022-07-05T00:10:25;13.07;;;12.03;;
18280;SDS011;9266;51.132;17.062;2022-07-05T00:12:52;13.47;;;12.37;;
18280;SDS011;9266;51.132;17.062;2022-07-05T00:15:19;12.70;;;11.50;;
18280;SDS011;9266;51.132;17.062;2022-07-05T00:17:47;12.13;;;11.00;;
18280;SDS011;9266;51.132;17.062;2022-07-05T00:20:14;15.03;;;12.80;;
18280;SDS011;9266;51.132;17.062;2022-07-05T00:22:43;14.03;;;12.70;;
18280;SDS011;9266;51.132;17.062;2022-07-05T00:25:10;12.40;;;11.20;;
18280;SDS011;9266;51.132;17.062;2022-07-05T00:27:38;12.60;;;11.60;;
18280;SDS011;9266;51.132;17.062;2022-07-05T00:30:05;12.53;;;11.53;;
18280;SDS011;9266;51.132;17.062;2022-07-05T00:32:33;11.93;;;10.93;;
18280;SDS011;9266;51.132;17.062;2022-07-05T00:35:01;14.00;;;11.90;;
18280;SDS011;9266;51.132;17.062;2022-07-05T00:37:28;12.73;;;11.53;;
18280;SDS011;9266;51.132;17.062;2022-07-05T00:39:57;11.67;;;10.67;;
18280;SDS011;9266;51.132;17.062;2022-07-05T00:42:24;12.30;;;10.83;;
18280;SDS011;9266;51.132;17.062;2022-07-05T00:44:51;11.73;;;10.73;;
18280;SDS011;9266;51.132;17.062;2022-07-05T00:47:18;11.73;;;10.83;;
18280;SDS011;9266;51.132;17.062;2022-07-05T00:49:46;11.70;;;10.60;;
18280;SDS011;9266;51.132;17.062;2022-07-05T00:52:14;13.53;;;12.20;;
18280;SDS011;9266;51.132;17.062;2022-07-05T00:54:42;12.47;;;11.33;;
18280;SDS011;9266;51.132;17.062;2022-07-05T00:57:11;12.07;;;11.00;;
18280;SDS011;9266;51.132;17.062;2022-07-05T00:59:38;11.63;;;10.60;;
18280;SDS011;9266;51.132;17.062;2022-07-05T01:02:05;11.17;;;10.10;;
18280;SDS011;9266;51.132;17.062;2022-07-05T01:04:33;11.43;;;10.33;;
18280;SDS011;9266;51.132;17.062;2022-07-05T06:09:25;11.57;;;10.37;;
18280;SDS011;9266;51.132;17.062;2022-07-05T06:11:52;10.20;;;9.30;;
18280;SDS011;9266;51.132;17.062;2022-07-05T06:14:20;10.30;;;9.30;;
18280;SDS011;9266;51.132;17.062;2022-07-05T06:16:47;10.93;;;9.63;;
18280;SDS011;9266;51.132;17.062;2022-07-05T06:19:14;9.70;;;8.80;;
18280;SDS011;9266;51.132;17.062;2022-07-05T06:21:41;9.10;;;8.27;;
18280;SDS011;9266;51.132;17.062;2022-07-05T06:24:09;9.47;;;8.67;;
18280;SDS011;9266;51.132;17.062;2022-07-05T06:26:37;9.23;;;8.43;;
18280;SDS011;9266;51.132;17.062;2022-07-05T06:29:05;9.40;;;8.47;;
18280;SDS011;9266;51.132;17.062;2022-07-05T06:31:32;9.07;;;8.20;;
18280;SDS011;9266;51.132;17.062;2022-07-05T06:33:59;10.00;;;8.30;;
18280;SDS011;9266;51.132;17.062;2022-07-05T06:36:26;8.97;;;8.10;;
18280;SDS011;9266;51.132;17.062;2022-07-05T06:38:54;8.70;;;7.90;;
18280;SDS011;9266;51.132;17.062;2022-07-05T06:41:21;8.60;;;7.77;;
18280;SDS011;9266;51.132;17.062;2022-07-05T06:43:50;9.13;;;7.50;;
18280;SDS011;9266;51.132;17.062;2022-07-05T06:46:17;8.83;;;8.00;;
18280;SDS011;9266;51.132;17.062;2022-07-05T06:48:44;8.87;;;7.90;;
18280;SDS011;9266;51.132;17.062;2022-07-05T06:51:14;9.57;;;8.70;;
18280;SDS011;9266;51.132;17.062;2022-07-05T06:53:42;9.30;;;8.50;;
18280;SDS011;9266;51.132;17.062;2022-07-05T06:56:09;9.67;;;8.77;;
18280;SDS011;9266;51.132;17.062;2022-07-05T06:58:36;9.90;;;8.90;;
18280;SDS011;9266;51.132;17.062;2022-07-05T07:01:06;8.33;;;7.63;;
18280;SDS011;9266;51.132;17.062;2022-07-05T07:03:33;9.97;;;9.00;;
18280;SDS011;9266;51.132;17.062;2022-07-05T07:06:00;10.37;;;9.47;;
18280;SDS011;9266;51.132;17.062;2022-07-05T07:08:28;10.30;;;9.40;;
18280;SDS011;9266;51.132;17.062;2022-07-05T07:11:13;10.23;;;9.33;;
18280;SDS011;9266;51.132;17.062;2022-07-05T07:13:41;11.73;;;9.90;;
18280;SDS011;9266;51.132;17.062;2022-07-05T07:16:10;11.50;;;10.40;;
18280;SDS011;9266;51.132;17.062;2022-07-05T07:18:37;11.43;;;10.27;;
18280;SDS011;9266;51.132;17.062;2022-07-05T07:21:04;11.53;;;10.43;;
18280;SDS011;9266;51.132;17.062;2022-07-05T07:23:32;12.47;;;11.17;;
18280;SDS011;9266;51.132;17.062;2022-07-05T07:26:00;11.30;;;10.30;;
18280;SDS011;9266;51.132;17.062;2022-07-05T07:28:27;11.83;;;10.60;;
18280;SDS011;9266;51.132;17.062;2022-07-05T07:30:55;11.27;;;10.37;;
18280;SDS011;9266;51.132;17.062;2022-07-05T07:33:23;12.33;;;11.03;;
18280;SDS011;9266;51.132;17.062;2022-07-05T07:35:51;11.13;;;10.13;;
18280;SDS011;9266;51.132;17.062;2022-07-05T07:38:18;12.27;;;11.17;;
18280;SDS011;9266;51.132;17.062;2022-07-05T07:40:45;12.20;;;11.00;;
18280;SDS011;9266;51.132;17.062;2022-07-05T07:43:13;11.20;;;10.10;;
18280;SDS011;9266;51.132;17.062;2022-07-05T07:45:40;12.27;;;10.83;;
18280;SDS011;9266;51.132;17.062;2022-07-05T07:48:08;12.87;;;11.67;;
18280;SDS011;9266;51.132;17.062;2022-07-05T07:50:36;12.10;;;10.63;;
18280;SDS011;9266;51.132;17.062;2022-07-05T07:53:04;11.53;;;10.37;;
18280;SDS011;9266;51.132;17.062;2022-07-05T07:55:31;10.93;;;9.77;;
18280;SDS011;9266;51.132;17.062;2022-07-05T07:57:58;10.70;;;9.70;;
18280;SDS011;9266;51.132;17.062;2022-07-05T08:00:26;13.47;;;10.50;;
18280;SDS011;9266;51.132;17.062;2022-07-05T08:02:53;12.13;;;10.93;;
18280;SDS011;9266;51.132;17.062;2022-07-05T08:05:21;12.37;;;11.10;;
18280;SDS011;9266;51.132;17.062;2022-07-05T08:07:49;13.40;;;11.97;;
18280;SDS011;9266;51.132;17.062;2022-07-05T08:10:17;13.60;;;12.30;;
18280;SDS011;9266;51.132;17.062;2022-07-05T08:12:44;14.87;;;13.43;;
18280;SDS011;9266;51.132;17.062;2022-07-05T08:15:11;15.20;;;13.47;;
18280;SDS011;9266;51.132;17.062;2022-07-05T08:17:39;14.70;;;13.30;;
18280;SDS011;9266;51.132;17.062;2022-07-05T08:20:26;15.90;;;14.37;;
18280;SDS011;9266;51.132;17.062;2022-07-05T08:23:12;17.37;;;15.73;;
18280;SDS011;9266;51.132;17.062;2022-07-05T08:25:40;16.10;;;14.57;;
18280;SDS011;9266;51.132;17.062;2022-07-05T08:28:07;18.07;;;15.03;;
18280;SDS011;9266;51.132;17.062;2022-07-05T08:30:35;18.57;;;15.63;;
18280;SDS011;9266;51.132;17.062;2022-07-05T08:33:02;18.53;;;16.73;;
18280;SDS011;9266;51.132;17.062;2022-07-05T08:35:29;14.33;;;13.00;;
18280;SDS011;9266;51.132;17.062;2022-07-05T08:37:56;13.17;;;11.87;;
18280;SDS011;9266;51.132;17.062;2022-07-05T08:40:26;11.53;;;10.40;;
18280;SDS011;9266;51.132;17.062;2022-07-05T08:42:54;11.70;;;10.53;;
18280;SDS011;9266;51.132;17.062;2022-07-05T08:45:22;13.10;;;11.70;;
18280;SDS011;9266;51.132;17.062;2022-07-05T08:47:52;13.97;;;12.23;;
18280;SDS011;9266;51.132;17.062;2022-07-05T08:50:21;16.13;;;12.20;;
18280;SDS011;9266;51.132;17.062;2022-07-05T08:52:49;14.07;;;12.10;;
18280;SDS011;9266;51.132;17.062;2022-07-05T08:55:17;11.97;;;10.70;;
18280;SDS011;9266;51.132;17.062;2022-07-05T08:57:45;10.83;;;9.93;;
18280;SDS011;9266;51.132;17.062;2022-07-05T09:00:13;13.43;;;10.90;;
18280;SDS011;9266;51.132;17.062;2022-07-05T09:02:40;14.07;;;12.40;;
18280;SDS011;9266;51.132;17.062;2022-07-05T09:05:08;13.70;;;12.40;;
18280;SDS011;9266;51.132;17.062;2022-07-05T09:07:40;13.00;;;11.73;;
18280;SDS011;9266;51.132;17.062;2022-07-05T09:10:10;12.40;;;11.23;;
18280;SDS011;9266;51.132;17.062;2022-07-05T09:12:38;14.50;;;12.23;;
18280;SDS011;9266;51.132;17.062;2022-07-05T09:15:08;14.20;;;12.80;;
18280;SDS011;9266;51.132;17.062;2022-07-05T09:17:41;10.57;;;9.03;;
18280;SDS011;9266;51.132;17.062;2022-07-05T09:20:09;7.03;;;6.37;;
18280;SDS011;9266;51.132;17.062;2022-07-05T09:22:44;9.53;;;7.23;;
18280;SDS011;9266;51.132;17.062;2022-07-05T09:25:12;8.97;;;6.87;;
18280;SDS011;9266;51.132;17.062;2022-07-05T09:27:46;7.47;;;6.77;;
18280;SDS011;9266;51.132;17.062;2022-07-05T09:30:20;8.50;;;7.80;;
18280;SDS011;9266;51.132;17.062;2022-07-05T09:32:58;8.87;;;6.70;;
18280;SDS011;9266;51.132;17.062;2022-07-05T09:35:27;7.70;;;6.93;;
18280;SDS011;9266;51.132;17.062;2022-07-05T09:37:54;7.50;;;6.70;;
18280;SDS011;9266;51.132;17.062;2022-07-05T09:40:22;6.87;;;6.17;;
18280;SDS011;9266;51.132;17.062;2022-07-05T09:42:49;7.60;;;6.83;;
18280;SDS011;9266;51.132;17.062;2022-07-05T09:45:22;7.73;;;6.93;;
18280;SDS011;9266;51.132;17.062;2022-07-05T09:47:50;8.43;;;7.63;;
18280;SDS011;9266;51.132;17.062;2022-07-05T09:50:32;9.23;;;8.33;;
18280;SDS011;9266;51.132;17.062;2022-07-05T09:52:59;11.20;;;8.03;;
18280;SDS011;9266;51.132;17.062;2022-07-05T09:55:27;8.37;;;7.50;;
18280;SDS011;9266;51.132;17.062;2022-07-05T09:57:54;9.77;;;8.87;;
18280;SDS011;9266;51.132;17.062;2022-07-05T10:00:25;9.03;;;7.70;;
18280;SDS011;9266;51.132;17.062;2022-07-05T10:02:53;8.80;;;7.90;;
18280;SDS011;9266;51.132;17.062;2022-07-05T10:05:26;9.60;;;8.63;;
18280;SDS011;9266;51.132;17.062;2022-07-05T10:07:54;8.90;;;8.00;;
18280;SDS011;9266;51.132;17.062;2022-07-05T10:10:22;8.30;;;7.40;;
18280;SDS011;9266;51.132;17.062;2022-07-05T10:12:50;9.07;;;8.27;;
18280;SDS011;9266;51.132;17.062;2022-07-05T10:15:19;9.13;;;8.23;;
18280;SDS011;9266;51.132;17.062;2022-07-05T10:17:50;10.13;;;9.00;;
18280;SDS011;9266;51.132;17.062;2022-07-05T10:20:23;10.87;;;8.67;;
18280;SDS011;9266;51.132;17.062;2022-07-05T10:22:55;9.03;;;8.30;;
18280;SDS011;9266;51.132;17.062;2022-07-05T10:25:23;9.47;;;7.80;;
18280;SDS011;9266;51.132;17.062;2022-07-05T10:27:51;8.30;;;7.50;;
18280;SDS011;9266;51.132;17.062;2022-07-05T10:30:20;8.93;;;7.83;;
18280;SDS011;9266;51.132;17.062;2022-07-05T10:32:49;9.17;;;8.23;;
18280;SDS011;9266;51.132;17.062;2022-07-05T10:35:16;8.10;;;7.37;;
18280;SDS011;9266;51.132;17.062;2022-07-05T10:37:46;8.37;;;7.33;;
18280;SDS011;9266;51.132;17.062;2022-07-05T10:40:14;7.60;;;6.90;;
18280;SDS011;9266;51.132;17.062;2022-07-05T10:42:45;7.77;;;6.93;;
18280;SDS011;9266;51.132;17.062;2022-07-05T10:45:24;8.00;;;6.93;;
18280;SDS011;9266;51.132;17.062;2022-07-05T10:50:42;6.87;;;6.27;;
18280;SDS011;9266;51.132;17.062;2022-07-05T10:53:10;6.10;;;5.60;;
18280;SDS011;9266;51.132;17.062;2022-07-05T10:55:46;7.00;;;6.00;;
18280;SDS011;9266;51.132;17.062;2022-07-05T10:58:17;6.17;;;4.80;;
18280;SDS011;9266;51.132;17.062;2022-07-05T11:00:46;6.70;;;5.10;;
18280;SDS011;9266;51.132;17.062;2022-07-05T11:06:01;5.43;;;4.93;;
18280;SDS011;9266;51.132;17.062;2022-07-05T11:08:30;5.53;;;5.03;;
18280;SDS011;9266;51.132;17.062;2022-07-05T11:11:08;4.80;;;4.17;;
18280;SDS011;9266;51.132;17.062;2022-07-05T11:13:37;4.70;;;4.20;;
18280;SDS011;9266;51.132;17.062;2022-07-05T11:16:20;6.37;;;4.83;;
18280;SDS011;9266;51.132;17.062;2022-07-05T11:18:50;4.83;;;4.33;;
18280;SDS011;9266;51.132;17.062;2022-07-05T11:21:18;7.00;;;4.97;;
18280;SDS011;9266;51.132;17.062;2022-07-05T11:23:45;5.00;;;4.20;;
18280;SDS011;9266;51.132;17.062;2022-07-05T11:26:13;5.50;;;4.20;;
18280;SDS011;9266;51.132;17.062;2022-07-05T11:28:43;4.90;;;4.40;;
18280;SDS011;9266;51.132;17.062;2022-07-05T11:31:12;4.70;;;4.20;;
18280;SDS011;9266;51.132;17.062;2022-07-05T11:34:13;4.73;;;4.33;;
18280;SDS011;9266;51.132;17.062;2022-07-05T11:36:42;5.07;;;4.00;;
18280;SDS011;9266;51.132;17.062;2022-07-05T11:39:10;4.73;;;4.30;;
18280;SDS011;9266;51.132;17.062;2022-07-05T11:41:43;5.47;;;3.60;;
18280;SDS011;9266;51.132;17.062;2022-07-05T11:44:12;5.87;;;4.10;;
18280;SDS011;9266;51.132;17.062;2022-07-05T11:46:40;5.13;;;4.10;;
18280;SDS011;9266;51.132;17.062;2022-07-05T11:49:08;5.37;;;4.07;;
18280;SDS011;9266;51.132;17.062;2022-07-05T11:51:36;4.17;;;3.60;;
18280;SDS011;9266;51.132;17.062;2022-07-05T11:54:04;4.97;;;4.50;;
18280;SDS011;9266;51.132;17.062;2022-07-05T11:56:31;6.90;;;5.20;;
18280;SDS011;9266;51.132;17.062;2022-07-05T11:58:58;5.23;;;4.17;;
18280;SDS011;9266;51.132;17.062;2022-07-05T12:01:25;5.30;;;4.23;;
18280;SDS011;9266;51.132;17.062;2022-07-05T12:03:53;5.27;;;4.50;;
18280;SDS011;9266;51.132;17.062;2022-07-05T12:06:21;4.30;;;3.90;;
18280;SDS011;9266;51.132;17.062;2022-07-05T12:09:04;5.53;;;4.33;;
18280;SDS011;9266;51.132;17.062;2022-07-05T12:11:31;4.33;;;3.93;;
18280;SDS011;9266;51.132;17.062;2022-07-05T12:14:19;7.23;;;3.90;;
18280;SDS011;9266;51.132;17.062;2022-07-05T12:16:47;7.43;;;4.50;;
18280;SDS011;9266;51.132;17.062;2022-07-05T12:19:23;5.40;;;3.53;;
18280;SDS011;9266;51.132;17.062;2022-07-05T12:21:52;5.60;;;4.20;;
18280;SDS011;9266;51.132;17.062;2022-07-05T12:24:21;4.63;;;3.60;;
18280;SDS011;9266;51.132;17.062;2022-07-05T12:26:49;4.63;;;3.30;;
18280;SDS011;9266;51.132;17.062;2022-07-05T12:29:17;4.13;;;3.73;;
18280;SDS011;9266;51.132;17.062;2022-07-05T12:31:58;6.27;;;4.27;;
18280;SDS011;9266;51.132;17.062;2022-07-05T12:34:27;4.43;;;4.03;;
18280;SDS011;9266;51.132;17.062;2022-07-05T12:36:55;5.60;;;3.77;;
18280;SDS011;9266;51.132;17.062;2022-07-05T12:39:24;4.43;;;3.40;;
18280;SDS011;9266;51.132;17.062;2022-07-05T12:41:51;4.90;;;4.13;;
18280;SDS011;9266;51.132;17.062;2022-07-05T12:44:19;4.73;;;4.23;;
18280;SDS011;9266;51.132;17.062;2022-07-05T12:46:46;7.37;;;3.93;;
18280;SDS011;9266;51.132;17.062;2022-07-05T12:49:16;7.13;;;3.77;;
18280;SDS011;9266;51.132;17.062;2022-07-05T12:51:44;3.97;;;3.30;;
18280;SDS011;9266;51.132;17.062;2022-07-05T12:54:18;7.07;;;4.10;;
18280;SDS011;9266;51.132;17.062;2022-07-05T12:57:06;4.13;;;3.60;;
18280;SDS011;9266;51.132;17.062;2022-07-05T12:59:57;3.53;;;2.87;;
18280;SDS011;9266;51.132;17.062;2022-07-05T13:02:35;3.97;;;3.10;;
18280;SDS011;9266;51.132;17.062;2022-07-05T13:05:04;3.97;;;3.57;;
18280;SDS011;9266;51.132;17.062;2022-07-05T13:07:32;3.70;;;3.40;;
18280;SDS011;9266;51.132;17.062;2022-07-05T13:10:12;4.37;;;3.43;;
18280;SDS011;9266;51.132;17.062;2022-07-05T13:12:42;3.77;;;3.33;;
18280;SDS011;9266;51.132;17.062;2022-07-05T13:15:09;4.87;;;3.27;;
18280;SDS011;9266;51.132;17.062;2022-07-05T13:17:37;5.53;;;3.50;;
18280;SDS011;9266;51.132;17.062;2022-07-05T13:20:05;4.67;;;3.30;;
18280;SDS011;9266;51.132;17.062;2022-07-05T13:22:32;3.73;;;3.27;;
18280;SDS011;9266;51.132;17.062;2022-07-05T13:25:00;3.00;;;2.70;;
18280;SDS011;9266;51.132;17.062;2022-07-05T13:27:27;2.90;;;2.53;;
18280;SDS011;9266;51.132;17.062;2022-07-05T13:29:56;4.10;;;3.00;;
18280;SDS011;9266;51.132;17.062;2022-07-05T13:32:23;3.93;;;2.87;;
18280;SDS011;9266;51.132;17.062;2022-07-05T13:34:50;4.73;;;2.93;;
18280;SDS011;9266;51.132;17.062;2022-07-05T13:37:20;3.50;;;3.20;;
18280;SDS011;9266;51.132;17.062;2022-07-05T13:39:48;4.63;;;3.50;;
18280;SDS011;9266;51.132;17.062;2022-07-05T13:42:15;5.57;;;4.20;;
18280;SDS011;9266;51.132;17.062;2022-07-05T13:44:42;3.57;;;3.13;;
18280;SDS011;9266;51.132;17.062;2022-07-05T13:47:11;3.37;;;3.07;;
18280;SDS011;9266;51.132;17.062;2022-07-05T13:49:38;3.27;;;2.93;;
18280;SDS011;9266;51.132;17.062;2022-07-05T13:52:05;4.77;;;3.23;;
18280;SDS011;9266;51.132;17.062;2022-07-05T13:54:33;3.70;;;2.80;;
18280;SDS011;9266;51.132;17.062;2022-07-05T13:57:00;2.90;;;2.60;;
18280;SDS011;9266;51.132;17.062;2022-07-05T13:59:28;6.00;;;3.00;;
18280;SDS011;9266;51.132;17.062;2022-07-05T14:01:55;3.60;;;3.00;;
18280;SDS011;9266;51.132;17.062;2022-07-05T14:04:24;4.00;;;3.00;;
18280;SDS011;9266;51.132;17.062;2022-07-05T14:06:54;6.87;;;3.40;;
18280;SDS011;9266;51.132;17.062;2022-07-05T14:09:22;4.87;;;3.20;;
18280;SDS011;9266;51.132;17.062;2022-07-05T14:11:50;4.03;;;3.10;;
18280;SDS011;9266;51.132;17.062;2022-07-05T14:14:18;3.30;;;3.00;;
18280;SDS011;9266;51.132;17.062;2022-07-05T14:16:45;3.20;;;2.80;;
18280;SDS011;9266;51.132;17.062;2022-07-05T14:19:12;3.40;;;3.07;;
18280;SDS011;9266;51.132;17.062;2022-07-05T14:21:41;2.80;;;2.57;;
18280;SDS011;9266;51.132;17.062;2022-07-05T14:24:10;3.83;;;2.80;;
18280;SDS011;9266;51.132;17.062;2022-07-05T14:26:38;2.83;;;2.50;;
18280;SDS011;9266;51.132;17.062;2022-07-05T14:29:06;2.60;;;2.40;;
18280;SDS011;9266;51.132;17.062;2022-07-05T14:31:33;3.13;;;2.77;;
18280;SDS011;9266;51.132;17.062;2022-07-05T14:34:01;3.33;;;2.90;;
18280;SDS011;9266;51.132;17.062;2022-07-05T14:36:28;3.03;;;2.40;;
18280;SDS011;9266;51.132;17.062;2022-07-05T14:38:57;4.43;;;3.07;;
18280;SDS011;9266;51.132;17.062;2022-07-05T14:41:26;5.80;;;2.60;;
18280;SDS011;9266;51.132;17.062;2022-07-05T14:43:54;3.10;;;2.50;;
18280;SDS011;9266;51.132;17.062;2022-07-05T14:46:21;3.50;;;2.47;;
18280;SDS011;9266;51.132;17.062;2022-07-05T14:48:48;3.10;;;2.78;;
18280;SDS011;9266;51.132;17.062;2022-07-05T14:51:16;3.00;;;2.60;;
18280;SDS011;9266;51.132;17.062;2022-07-05T14:53:44;4.13;;;3.10;;
18280;SDS011;9266;51.132;17.062;2022-07-05T14:56:13;3.37;;;3.03;;
18280;SDS011;9266;51.132;17.062;2022-07-05T14:58:40;2.97;;;2.77;;
18280;SDS011;9266;51.132;17.062;2022-07-05T15:01:08;4.13;;;2.90;;
18280;SDS011;9266;51.132;17.062;2022-07-05T15:03:35;3.00;;;2.77;;
18280;SDS011;9266;51.132;17.062;2022-07-05T15:06:04;2.73;;;2.43;;
18280;SDS011;9266;51.132;17.062;2022-07-05T15:08:32;2.50;;;2.30;;
18280;SDS011;9266;51.132;17.062;2022-07-05T15:11:02;2.30;;;2.10;;
18280;SDS011;9266;51.132;17.062;2022-07-05T15:13:32;2.30;;;2.10;;
18280;SDS011;9266;51.132;17.062;2022-07-05T15:16:00;2.73;;;2.50;;
18280;SDS011;9266;51.132;17.062;2022-07-05T15:18:27;3.93;;;2.50;;
18280;SDS011;9266;51.132;17.062;2022-07-05T15:20:54;2.70;;;2.47;;
18280;SDS011;9266;51.132;17.062;2022-07-05T15:23:21;2.35;;;2.10;;
18280;SDS011;9266;51.132;17.062;2022-07-05T15:25:52;2.38;;;2.17;;
18280;SDS011;9266;51.132;17.062;2022-07-05T15:28:20;2.67;;;2.10;;
18280;SDS011;9266;51.132;17.062;2022-07-05T15:30:48;2.73;;;2.50;;
18280;SDS011;9266;51.132;17.062;2022-07-05T15:33:17;2.65;;;2.40;;
18280;SDS011;9266;51.132;17.062;2022-07-05T15:35:48;4.38;;;2.67;;
18280;SDS011;9266;51.132;17.062;2022-07-05T15:38:17;3.57;;;2.20;;
18280;SDS011;9266;51.132;17.062;2022-07-05T15:40:45;3.00;;;2.40;;
18280;SDS011;9266;51.132;17.062;2022-07-05T15:43:12;2.50;;;2.30;;
18280;SDS011;9266;51.132;17.062;2022-07-05T15:45:39;2.50;;;2.28;;
18280;SDS011;9266;51.132;17.062;2022-07-05T15:48:08;3.15;;;2.28;;
18280;SDS011;9266;51.132;17.062;2022-07-05T15:50:35;4.18;;;1.90;;
18280;SDS011;9266;51.132;17.062;2022-07-05T15:53:02;2.95;;;2.40;;
18280;SDS011;9266;51.132;17.062;2022-07-05T15:55:30;2.42;;;2.10;;
18280;SDS011;9266;51.132;17.062;2022-07-05T15:57:57;3.70;;;2.05;;
18280;SDS011;9266;51.132;17.062;2022-07-05T16:00:24;2.87;;;2.27;;
18280;SDS011;9266;51.132;17.062;2022-07-05T16:02:51;4.60;;;2.25;;
18280;SDS011;9266;51.132;17.062;2022-07-05T16:05:20;4.13;;;2.65;;
18280;SDS011;9266;51.132;17.062;2022-07-05T16:07:47;2.35;;;2.00;;
18280;SDS011;9266;51.132;17.062;2022-07-05T16:10:15;2.40;;;2.10;;
18280;SDS011;9266;51.132;17.062;2022-07-05T16:12:42;3.10;;;2.00;;
18280;SDS011;9266;51.132;17.062;2022-07-05T16:15:10;2.83;;;1.97;;
18280;SDS011;9266;51.132;17.062;2022-07-05T16:17:57;3.37;;;2.70;;
18280;SDS011;9266;51.132;17.062;2022-07-05T16:20:25;2.73;;;1.93;;
18280;SDS011;9266;51.132;17.062;2022-07-05T16:22:53;3.92;;;1.90;;
18280;SDS011;9266;51.132;17.062;2022-07-05T16:25:20;3.00;;;2.17;;
18280;SDS011;9266;51.132;17.062;2022-07-05T16:27:47;4.53;;;2.00;;
18280;SDS011;9266;51.132;17.062;2022-07-05T16:30:15;2.35;;;2.10;;
18280;SDS011;9266;51.132;17.062;2022-07-05T16:32:42;3.13;;;2.10;;
18280;SDS011;9266;51.132;17.062;2022-07-05T16:35:09;2.67;;;1.90;;
18280;SDS011;9266;51.132;17.062;2022-07-05T16:37:38;3.00;;;2.30;;
18280;SDS011;9266;51.132;17.062;2022-07-05T16:40:05;2.50;;;2.00;;
18280;SDS011;9266;51.132;17.062;2022-07-05T16:42:33;4.57;;;2.23;;
18280;SDS011;9266;51.132;17.062;2022-07-05T16:45:00;2.33;;;2.13;;
18280;SDS011;9266;51.132;17.062;2022-07-05T16:47:28;4.60;;;2.40;;
18280;SDS011;9266;51.132;17.062;2022-07-05T16:49:56;2.87;;;2.10;;
18280;SDS011;9266;51.132;17.062;2022-07-05T16:52:23;3.07;;;2.20;;
18280;SDS011;9266;51.132;17.062;2022-07-05T16:54:52;2.90;;;2.43;;
18280;SDS011;9266;51.132;17.062;2022-07-05T16:57:19;2.87;;;2.03;;
18280;SDS011;9266;51.132;17.062;2022-07-05T16:59:46;2.83;;;1.80;;
18280;SDS011;9266;51.132;17.062;2022-07-05T17:02:13;2.57;;;2.10;;
18280;SDS011;9266;51.132;17.062;2022-07-05T17:04:41;2.63;;;2.23;;
18280;SDS011;9266;51.132;17.062;2022-07-05T17:07:08;2.37;;;2.17;;
18280;SDS011;9266;51.132;17.062;2022-07-05T17:09:35;2.40;;;2.20;;
18280;SDS011;9266;51.132;17.062;2022-07-05T17:12:04;2.27;;;2.07;;
18280;SDS011;9266;51.132;17.062;2022-07-05T17:14:31;3.10;;;2.50;;
18280;SDS011;9266;51.132;17.062;2022-07-05T17:16:59;3.03;;;2.10;;
18280;SDS011;9266;51.132;17.062;2022-07-05T17:19:26;2.63;;;2.00;;
18280;SDS011;9266;51.132;17.062;2022-07-05T17:21:54;2.37;;;2.17;;
18280;SDS011;9266;51.132;17.062;2022-07-05T17:24:21;2.37;;;2.17;;
18280;SDS011;9266;51.132;17.062;2022-07-05T17:26:48;2.90;;;2.57;;
18280;SDS011;9266;51.132;17.062;2022-07-05T17:29:17;3.83;;;2.57;;
18280;SDS011;9266;51.132;17.062;2022-07-05T17:31:46;4.63;;;2.40;;
18280;SDS011;9266;51.132;17.062;2022-07-05T17:34:13;3.83;;;2.63;;
18280;SDS011;9266;51.132;17.062;2022-07-05T17:36:41;3.20;;;2.20;;
18280;SDS011;9266;51.132;17.062;2022-07-05T17:39:08;3.70;;;2.47;;
18280;SDS011;9266;51.132;17.062;2022-07-05T17:41:36;3.73;;;2.60;;
18280;SDS011;9266;51.132;17.062;2022-07-05T17:44:04;2.90;;;2.60;;
18280;SDS011;9266;51.132;17.062;2022-07-05T17:46:34;3.43;;;2.30;;
18280;SDS011;9266;51.132;17.062;2022-07-05T17:49:02;4.00;;;2.57;;
18280;SDS011;9266;51.132;17.062;2022-07-05T17:51:29;2.80;;;2.50;;
18280;SDS011;9266;51.132;17.062;2022-07-05T17:53:56;3.17;;;2.40;;
18280;SDS011;9266;51.132;17.062;2022-07-05T17:56:24;4.20;;;2.40;;
18280;SDS011;9266;51.132;17.062;2022-07-05T17:58:52;4.77;;;2.60;;
18280;SDS011;9266;51.132;17.062;2022-07-05T18:01:20;3.90;;;2.60;;
18280;SDS011;9266;51.132;17.062;2022-07-05T18:03:48;3.50;;;2.40;;
18280;SDS011;9266;51.132;17.062;2022-07-05T18:06:16;2.80;;;2.60;;
18280;SDS011;9266;51.132;17.062;2022-07-05T18:08:45;3.60;;;2.30;;
18280;SDS011;9266;51.132;17.062;2022-07-05T18:11:12;3.60;;;2.50;;
18280;SDS011;9266;51.132;17.062;2022-07-05T18:13:40;2.87;;;2.57;;
18280;SDS011;9266;51.132;17.062;2022-07-05T18:16:08;3.40;;;2.60;;
18280;SDS011;9266;51.132;17.062;2022-07-05T18:18:35;4.47;;;2.53;;
18280;SDS011;9266;51.132;17.062;2022-07-05T18:21:04;2.83;;;2.50;;
18280;SDS011;9266;51.132;17.062;2022-07-05T18:23:32;3.10;;;2.80;;
18280;SDS011;9266;51.132;17.062;2022-07-05T18:26:00;3.63;;;2.70;;
18280;SDS011;9266;51.132;17.062;2022-07-05T18:28:27;5.17;;;3.00;;
18280;SDS011;9266;51.132;17.062;2022-07-05T18:30:55;4.50;;;2.77;;
18280;SDS011;9266;51.132;17.062;2022-07-05T18:33:23;4.17;;;2.97;;
18280;SDS011;9266;51.132;17.062;2022-07-05T18:35:50;4.17;;;2.67;;
18280;SDS011;9266;51.132;17.062;2022-07-05T18:38:19;5.23;;;2.60;;
18280;SDS011;9266;51.132;17.062;2022-07-05T18:40:47;3.07;;;2.77;;
18280;SDS011;9266;51.132;17.062;2022-07-05T18:43:14;4.50;;;2.83;;
18280;SDS011;9266;51.132;17.062;2022-07-05T18:45:42;3.07;;;2.73;;
18280;SDS011;9266;51.132;17.062;2022-07-05T18:48:10;4.13;;;2.50;;
18280;SDS011;9266;51.132;17.062;2022-07-05T18:50:37;3.27;;;2.90;;
18280;SDS011;9266;51.132;17.062;2022-07-05T18:53:05;4.10;;;3.30;;
18280;SDS011;9266;51.132;17.062;2022-07-05T18:55:34;4.53;;;2.80;;
18280;SDS011;9266;51.132;17.062;2022-07-05T18:58:02;4.17;;;2.60;;
18280;SDS011;9266;51.132;17.062;2022-07-05T19:00:30;3.43;;;2.80;;
18280;SDS011;9266;51.132;17.062;2022-07-05T19:02:58;4.90;;;3.23;;
18280;SDS011;9266;51.132;17.062;2022-07-05T19:05:26;4.40;;;3.07;;
18280;SDS011;9266;51.132;17.062;2022-07-05T19:07:53;4.83;;;3.60;;
18280;SDS011;9266;51.132;17.062;2022-07-05T19:10:40;5.30;;;3.70;;
18280;SDS011;9266;51.132;17.062;2022-07-05T19:13:25;6.27;;;3.60;;
18280;SDS011;9266;51.132;17.062;2022-07-05T19:16:08;6.00;;;3.70;;
18280;SDS011;9266;51.132;17.062;2022-07-05T19:18:37;4.40;;;3.73;;
18280;SDS011;9266;51.132;17.062;2022-07-05T19:21:05;4.30;;;3.90;;
18280;SDS011;9266;51.132;17.062;2022-07-05T19:23:33;4.23;;;3.83;;
18280;SDS011;9266;51.132;17.062;2022-07-05T19:26:03;5.20;;;4.17;;
18280;SDS011;9266;51.132;17.062;2022-07-05T19:28:31;6.90;;;4.33;;
18280;SDS011;9266;51.132;17.062;2022-07-05T19:30:59;5.10;;;4.27;;
18280;SDS011;9266;51.132;17.062;2022-07-05T19:33:26;8.23;;;4.70;;
18280;SDS011;9266;51.132;17.062;2022-07-05T19:35:53;9.40;;;8.23;;
18280;SDS011;9266;51.132;17.062;2022-07-05T19:38:20;7.13;;;5.87;;
18280;SDS011;9266;51.132;17.062;2022-07-05T19:40:48;8.87;;;4.87;;
18280;SDS011;9266;51.132;17.062;2022-07-05T19:43:17;4.27;;;3.87;;
18280;SDS011;9266;51.132;17.062;2022-07-05T19:45:45;5.27;;;4.40;;
18280;SDS011;9266;51.132;17.062;2022-07-05T19:48:12;4.70;;;4.20;;
18280;SDS011;9266;51.132;17.062;2022-07-05T19:50:39;5.60;;;3.83;;
18280;SDS011;9266;51.132;17.062;2022-07-05T19:53:07;4.53;;;4.13;;
18280;SDS011;9266;51.132;17.062;2022-07-05T19:55:34;4.80;;;4.40;;
18280;SDS011;9266;51.132;17.062;2022-07-05T19:58:01;7.07;;;4.63;;